Finest — WCW8374 — position and weather

sailwx.info

Track history (hours):
 
Tides and Currents Weather Stations Pressure Air Temp Water Temp Dewpoint Dewpoint Depression Visibility Wind Speed Wind Dir Waves Ship Positions

Finest

Owner: NEW YORK FAST FERRY SERVICES INC, MAMARONECK, NY. More information available from US FCC via Universal Licensing System and Coast Guard Vessel Documentation Center.

Last reported at 2014-Dec-19 23:33 UTC. Time now 2014-Dec-20 22:15 UTC.
Position N 40°36' W 074°03'.

Length 38 m.

Type: High speed craft. MMSI: 366990590.

Date/timePositionNaut miles runAvg speedWind from/ knotsBaromVisibWave heightAir tempDewpointWater temp
2014-Dec-19 23:33N 40°36' W 074°03'6 2.8
2014-Dec-19 21:33N 40°42' W 074°00'5 0.6
2014-Dec-19 14:25N 40°46' W 074°01'7 8.3
2014-Dec-19 13:33N 40°39' W 074°02'3 3.4
2014-Dec-19 12:33N 40°36' W 074°03'1010.0
2014-Dec-19 11:33N 40°26' W 074°05'10 0.8
2014-Dec-18 23:33N 40°36' W 074°03'6 2.8
2014-Dec-18 21:33N 40°41' W 074°01'5 5.0
2014-Dec-18 20:33N 40°46' W 074°01'0 0.0
2014-Dec-18 19:33N 40°46' W 074°01'0 0.0
2014-Dec-18 18:33N 40°46' W 074°01'0 0.0
2014-Dec-18 17:33N 40°46' W 074°01'0 0.0
2014-Dec-18 16:28N 40°46' W 074°01'0 0.0
2014-Dec-18 15:33N 40°46' W 074°01'0 0.0
2014-Dec-18 14:34N 40°46' W 074°01'8 8.3
2014-Dec-18 13:34N 40°38' W 074°03'2 1.7
2014-Dec-18 12:33N 40°36' W 074°03'0 0.0
2014-Dec-17 23:33N 40°36' W 074°03'6 3.2
2014-Dec-17 21:34N 40°42' W 074°00'4 4.0
2014-Dec-17 20:32N 40°46' W 074°01'0 0.0
2014-Dec-17 19:32N 40°46' W 074°01'0 0.0
2014-Dec-17 18:33N 40°46' W 074°01'0 0.0
2014-Dec-17 17:32N 40°46' W 074°01'0 0.0
2014-Dec-17 16:33N 40°46' W 074°01'0 0.0
2014-Dec-17 15:33N 40°46' W 074°01'0 0.0
2014-Dec-17 14:33N 40°46' W 074°01'7 7.2
2014-Dec-17 13:34N 40°39' W 074°02'5 5.3
2014-Dec-17 12:32N 40°34' W 074°02'2 0.1
2014-Dec-16 23:33N 40°36' W 074°03'3 3.0
2014-Dec-16 22:33N 40°33' W 074°04'9 8.9
2014-Dec-16 21:34N 40°41' W 074°01'5 5.1
2014-Dec-16 20:33N 40°46' W 074°01'0 0.0
2014-Dec-16 19:33N 40°46' W 074°01'0 0.0
2014-Dec-16 18:33N 40°46' W 074°01'0 0.0
2014-Dec-16 17:33N 40°46' W 074°01'0 0.0
2014-Dec-16 16:33N 40°46' W 074°01'0 0.0
2014-Dec-16 15:33N 40°46' W 074°01'1 0.5
2014-Dec-16 14:33N 40°46' W 074°01'9 8.7
2014-Dec-16 13:34N 40°37' W 074°03'0 0.4
2014-Dec-16 12:33N 40°38' W 074°03'12 8.0
2014-Dec-16 11:05N 40°26' W 074°05'11 0.9
2014-Dec-15 23:33N 40°36' W 074°03'7 6.2
2014-Dec-15 22:28N 40°30' W 074°04'1212.8
2014-Dec-15 21:34N 40°41' W 074°01'5 5.1
2014-Dec-15 20:34N 40°46' W 074°01'0 0.0
2014-Dec-15 19:33N 40°46' W 074°01'0 0.0
2014-Dec-15 18:33N 40°46' W 074°01'0 0.0
2014-Dec-15 17:33N 40°46' W 074°01'0 0.0
2014-Dec-15 16:33N 40°46' W 074°01'0 0.0
2014-Dec-15 15:33N 40°46' W 074°01'0 0.0
2014-Dec-15 14:33N 40°46' W 074°01'1110.9
2014-Dec-15 13:33N 40°36' W 074°02'3 3.2
2014-Dec-15 12:33N 40°39' W 074°02'3 1.2
2014-Dec-15 10:18N 40°36' W 074°03'1013.9
2014-Dec-15 09:33N 40°46' W 074°01'  
2014-Dec-13 01:03N 40°46' W 074°01'612.5
2014-Dec-13 00:34N 40°40' W 074°02'5 5.0
2014-Dec-12 23:33N 40°35' W 074°03'7 3.3
2014-Dec-12 21:34N 40°42' W 074°01'5 4.6
2014-Dec-12 20:33N 40°46' W 074°01'0 0.0
2014-Dec-12 19:33N 40°46' W 074°01'0 0.0
2014-Dec-12 18:33N 40°46' W 074°01'0 0.0
2014-Dec-12 17:31N 40°46' W 074°01'0 0.0
2014-Dec-12 16:33N 40°46' W 074°01'0 0.0
2014-Dec-12 15:30N 40°46' W 074°01'0 0.0
2014-Dec-12 14:31N 40°46' W 074°01'8 8.2
2014-Dec-12 13:34N 40°38' W 074°02'2 1.9
2014-Dec-12 12:33N 40°37' W 074°03'1 0.0
2014-Dec-11 23:33N 40°36' W 074°03'5 2.7
2014-Dec-11 21:34N 40°41' W 074°01'5 5.1
2014-Dec-11 20:33N 40°46' W 074°01'0 0.0
2014-Dec-11 19:33N 40°46' W 074°01'0 0.0
2014-Dec-11 18:30N 40°46' W 074°01'0 0.0
2014-Dec-11 17:33N 40°46' W 074°01'0 0.0
2014-Dec-11 16:33N 40°46' W 074°01'0 0.0
2014-Dec-11 15:34N 40°46' W 074°01'0 0.0
2014-Dec-11 14:33N 40°46' W 074°01'9 9.0
2014-Dec-11 13:33N 40°37' W 074°03'0 0.3
2014-Dec-11 12:33N 40°38' W 074°03'1 0.1
2014-Dec-10 23:33N 40°37' W 074°03'5 2.5
2014-Dec-10 21:34N 40°41' W 074°01'5 5.1
2014-Dec-10 20:33N 40°46' W 074°01'0 0.0
2014-Dec-10 19:34N 40°46' W 074°01'0 0.0
2014-Dec-10 18:34N 40°46' W 074°01'0 0.0
2014-Dec-10 17:34N 40°46' W 074°01'0 0.0
2014-Dec-10 16:33N 40°46' W 074°01'0 0.0
2014-Dec-10 15:28N 40°46' W 074°01'0 0.1
2014-Dec-10 14:33N 40°46' W 074°01'9 8.9
2014-Dec-10 13:33N 40°38' W 074°03'0 0.4
2014-Dec-10 12:34N 40°37' W 074°03'  
Track history (hours):
 
Tides and Currents Weather Stations Pressure Air Temp Water Temp Dewpoint Dewpoint Depression Visibility Wind Speed Wind Dir Waves Ship Positions

Finest

Owner: NEW YORK FAST FERRY SERVICES INC, MAMARONECK, NY. More information available from US FCC via Universal Licensing System and Coast Guard Vessel Documentation Center.

Last reported at 2014-Dec-19 23:33 UTC. Time now 2014-Dec-20 22:15 UTC.
Position N 40°36' W 074°03'.

Length 38 m.

Type: High speed craft. MMSI: 366990590.

Date/timePositionNaut miles runAvg speedWind from/ knotsBaromVisibWave heightAir tempDewpointWater temp
2014-Dec-19 23:33N 40°36' W 074°03'6 2.8
2014-Dec-19 21:33N 40°42' W 074°00'5 0.6
2014-Dec-19 14:25N 40°46' W 074°01'7 8.3
2014-Dec-19 13:33N 40°39' W 074°02'3 3.4
2014-Dec-19 12:33N 40°36' W 074°03'1010.0
2014-Dec-19 11:33N 40°26' W 074°05'10 0.8
2014-Dec-18 23:33N 40°36' W 074°03'6 2.8
2014-Dec-18 21:33N 40°41' W 074°01'5 5.0
2014-Dec-18 20:33N 40°46' W 074°01'0 0.0
2014-Dec-18 19:33N 40°46' W 074°01'0 0.0
2014-Dec-18 18:33N 40°46' W 074°01'0 0.0
2014-Dec-18 17:33N 40°46' W 074°01'0 0.0
2014-Dec-18 16:28N 40°46' W 074°01'0 0.0
2014-Dec-18 15:33N 40°46' W 074°01'0 0.0
2014-Dec-18 14:34N 40°46' W 074°01'8 8.3
2014-Dec-18 13:34N 40°38' W 074°03'2 1.7
2014-Dec-18 12:33N 40°36' W 074°03'0 0.0
2014-Dec-17 23:33N 40°36' W 074°03'6 3.2
2014-Dec-17 21:34N 40°42' W 074°00'4 4.0
2014-Dec-17 20:32N 40°46' W 074°01'0 0.0
2014-Dec-17 19:32N 40°46' W 074°01'0 0.0
2014-Dec-17 18:33N 40°46' W 074°01'0 0.0
2014-Dec-17 17:32N 40°46' W 074°01'0 0.0
2014-Dec-17 16:33N 40°46' W 074°01'0 0.0
2014-Dec-17 15:33N 40°46' W 074°01'0 0.0
2014-Dec-17 14:33N 40°46' W 074°01'7 7.2
2014-Dec-17 13:34N 40°39' W 074°02'5 5.3
2014-Dec-17 12:32N 40°34' W 074°02'2 0.1
2014-Dec-16 23:33N 40°36' W 074°03'3 3.0
2014-Dec-16 22:33N 40°33' W 074°04'9 8.9
2014-Dec-16 21:34N 40°41' W 074°01'5 5.1
2014-Dec-16 20:33N 40°46' W 074°01'0 0.0
2014-Dec-16 19:33N 40°46' W 074°01'0 0.0
2014-Dec-16 18:33N 40°46' W 074°01'0 0.0
2014-Dec-16 17:33N 40°46' W 074°01'0 0.0
2014-Dec-16 16:33N 40°46' W 074°01'0 0.0
2014-Dec-16 15:33N 40°46' W 074°01'1 0.5
2014-Dec-16 14:33N 40°46' W 074°01'9 8.7
2014-Dec-16 13:34N 40°37' W 074°03'0 0.4
2014-Dec-16 12:33N 40°38' W 074°03'12 8.0
2014-Dec-16 11:05N 40°26' W 074°05'11 0.9
2014-Dec-15 23:33N 40°36' W 074°03'7 6.2
2014-Dec-15 22:28N 40°30' W 074°04'1212.8
2014-Dec-15 21:34N 40°41' W 074°01'5 5.1
2014-Dec-15 20:34N 40°46' W 074°01'0 0.0
2014-Dec-15 19:33N 40°46' W 074°01'0 0.0
2014-Dec-15 18:33N 40°46' W 074°01'0 0.0
2014-Dec-15 17:33N 40°46' W 074°01'0 0.0
2014-Dec-15 16:33N 40°46' W 074°01'0 0.0
2014-Dec-15 15:33N 40°46' W 074°01'0 0.0
2014-Dec-15 14:33N 40°46' W 074°01'1110.9
2014-Dec-15 13:33N 40°36' W 074°02'3 3.2
2014-Dec-15 12:33N 40°39' W 074°02'3 1.2
2014-Dec-15 10:18N 40°36' W 074°03'1013.9
2014-Dec-15 09:33N 40°46' W 074°01'  
2014-Dec-13 01:03N 40°46' W 074°01'612.5
2014-Dec-13 00:34N 40°40' W 074°02'5 5.0
2014-Dec-12 23:33N 40°35' W 074°03'7 3.3
2014-Dec-12 21:34N 40°42' W 074°01'5 4.6
2014-Dec-12 20:33N 40°46' W 074°01'0 0.0
2014-Dec-12 19:33N 40°46' W 074°01'0 0.0
2014-Dec-12 18:33N 40°46' W 074°01'0 0.0
2014-Dec-12 17:31N 40°46' W 074°01'0 0.0
2014-Dec-12 16:33N 40°46' W 074°01'0 0.0
2014-Dec-12 15:30N 40°46' W 074°01'0 0.0
2014-Dec-12 14:31N 40°46' W 074°01'8 8.2
2014-Dec-12 13:34N 40°38' W 074°02'2 1.9
2014-Dec-12 12:33N 40°37' W 074°03'1 0.0
2014-Dec-11 23:33N 40°36' W 074°03'5 2.7
2014-Dec-11 21:34N 40°41' W 074°01'5 5.1
2014-Dec-11 20:33N 40°46' W 074°01'0 0.0
2014-Dec-11 19:33N 40°46' W 074°01'0 0.0
2014-Dec-11 18:30N 40°46' W 074°01'0 0.0
2014-Dec-11 17:33N 40°46' W 074°01'0 0.0
2014-Dec-11 16:33N 40°46' W 074°01'0 0.0
2014-Dec-11 15:34N 40°46' W 074°01'0 0.0
2014-Dec-11 14:33N 40°46' W 074°01'9 9.0
2014-Dec-11 13:33N 40°37' W 074°03'0 0.3
2014-Dec-11 12:33N 40°38' W 074°03'1 0.1
2014-Dec-10 23:33N 40°37' W 074°03'5 2.5
2014-Dec-10 21:34N 40°41' W 074°01'5 5.1
2014-Dec-10 20:33N 40°46' W 074°01'0 0.0
2014-Dec-10 19:34N 40°46' W 074°01'0 0.0
2014-Dec-10 18:34N 40°46' W 074°01'0 0.0
2014-Dec-10 17:34N 40°46' W 074°01'0 0.0
2014-Dec-10 16:33N 40°46' W 074°01'0 0.0
2014-Dec-10 15:28N 40°46' W 074°01'0 0.1
2014-Dec-10 14:33N 40°46' W 074°01'9 8.9
2014-Dec-10 13:33N 40°38' W 074°03'0 0.4
2014-Dec-10 12:34N 40°37' W 074°03'  

Dump ship's entire track history